Terminal Aerodrome Forecast
Issued by NWS

Current Version | Previous Version | Text Only | Print | Product List | Glossary Off
Versions: 1 2 3 4 5 6 7 8 9 10 11 12 13 14 15

000
FTUS41 KRNK 211127
TAFLWB
TAF
KLWB 211127Z 2112/2212 00000KT P6SM SCT250
     FM211600 23007KT P6SM SCT250
     FM220200 VRB03KT P6SM BKN025
     FM220800 28004KT P6SM SCT035=

USA.gov is the U.S. government's official web portal to all federal, state and local government web resources and services.